Time;durP1;ratioP1;P1;durP2;ratioP2;P2;SDS_P1;SDS_P2;PMS_P1;PMS_P2;Temp;Humidity;BMP_temperature;BMP_pressure;BME280_temperature;BME280_humidity;BME280_pressure;Samples;Min_cycle;Max_cycle;Signal;HPM_P1;HPM_P2
2022/07/08 00:01:54;;;;;;;4.78;1.40;;;;;;;19.77;77.10;99735.34;5063927;28;20354;-60
2022/07/08 00:04:21;;;;;;;3.40;1.40;;;;;;;19.72;77.16;99740.00;5084062;28;20167;-60
2022/07/08 00:06:47;;;;;;;3.42;1.50;;;;;;;19.75;77.58;99736.34;5068332;28;20029;-60
2022/07/08 00:09:13;;;;;;;2.72;1.40;;;;;;;19.79;77.45;99735.28;5063853;28;20028;-59
2022/07/08 00:11:40;;;;;;;1.77;1.50;;;;;;;19.80;77.34;99737.81;5063994;28;20040;-58
2022/07/08 00:14:06;;;;;;;1.75;1.40;;;;;;;19.82;76.71;99737.72;5063711;28;20056;-60
2022/07/08 00:16:33;;;;;;;1.50;1.40;;;;;;;19.84;76.46;99738.50;5063660;28;20021;-60
2022/07/08 00:19:00;;;;;;;1.95;1.50;;;;;;;19.74;76.97;99739.91;5063594;28;20021;-60
2022/07/08 00:21:26;;;;;;;1.50;1.25;;;;;;;19.82;76.08;99746.47;5063216;28;20045;-59
2022/07/08 00:23:51;;;;;;;4.40;1.40;;;;;;;19.76;76.29;99741.53;5063579;28;20020;-60
2022/07/08 00:26:17;;;;;;;2.47;1.40;;;;;;;19.79;76.26;99741.38;5063252;28;20183;-60
2022/07/08 00:28:42;;;;;;;3.95;1.40;;;;;;;19.79;75.68;99735.28;5063599;28;20028;-59
2022/07/08 00:31:08;;;;;;;2.45;1.60;;;;;;;19.75;77.44;99745.13;5081546;28;20317;-59
2022/07/08 00:33:34;;;;;;;1.55;1.45;;;;;;;19.72;76.97;99744.44;5070026;28;20024;-59
2022/07/08 00:36:00;;;;;;;6.22;1.58;;;;;;;19.67;76.71;99744.72;5063187;28;20031;-59
2022/07/08 00:38:25;;;;;;;2.17;1.10;;;;;;;19.62;75.94;99733.59;5062547;28;20055;-59
2022/07/08 00:40:51;;;;;;;2.47;1.33;;;;;;;19.63;75.54;99735.31;5063358;28;20055;-60
2022/07/08 00:43:33;;;;;;;1.35;1.23;;;;;;;19.64;74.98;99731.75;5063185;28;20025;-59
2022/07/08 00:45:58;;;;;;;1.63;1.50;;;;;;;19.61;76.56;99721.41;5071272;28;20212;-59
2022/07/08 00:48:24;;;;;;;2.53;1.50;;;;;;;19.63;75.70;99730.06;5063177;28;20028;-59
2022/07/08 00:50:50;;;;;;;1.40;1.30;;;;;;;19.60;76.05;99731.06;5063018;28;20048;-60
2022/07/08 00:53:16;;;;;;;1.60;1.20;;;;;;;19.61;76.12;99731.91;5062751;28;20080;-59
2022/07/08 00:55:43;;;;;;;2.05;1.60;;;;;;;19.56;75.89;99731.34;5062751;28;20437;-59
2022/07/08 00:58:08;;;;;;;2.33;1.45;;;;;;;19.59;75.59;99728.53;5063026;28;20028;-59
2022/07/08 01:00:34;;;;;;;1.33;1.23;;;;;;;19.54;76.35;99727.94;5076145;28;20410;-59
2022/07/08 01:03:01;;;;;;;1.95;1.20;;;;;;;19.56;76.70;99733.97;5074539;28;20064;-59
2022/07/08 01:05:26;;;;;;;2.88;1.25;;;;;;;19.57;76.53;99728.63;5062635;28;20040;-59
2022/07/08 01:07:52;;;;;;;2.22;1.20;;;;;;;19.42;77.34;99732.13;5062945;28;20025;-59
2022/07/08 01:10:17;;;;;;;3.22;1.40;;;;;;;19.46;76.67;99733.66;5044715;28;20035;-59
2022/07/08 01:12:43;;;;;;;2.35;1.30;;;;;;;19.47;77.02;99732.72;5077160;28;20020;-59
2022/07/08 01:15:09;;;;;;;4.30;1.40;;;;;;;19.47;76.50;99730.94;5082762;28;20020;-59
2022/07/08 01:17:45;;;;;;;1.40;1.30;;;;;;;19.47;76.26;99745.88;5052369;28;20218;-60
2022/07/08 01:20:12;;;;;;;1.40;1.30;;;;;;;19.48;76.89;99735.25;5062689;28;20032;-60
2022/07/08 01:22:38;;;;;;;1.30;1.20;;;;;;;19.49;77.00;99744.81;5062628;28;20024;-60
2022/07/08 01:25:05;;;;;;;1.55;1.38;;;;;;;19.43;76.64;99739.09;5062494;28;20321;-60
2022/07/08 01:27:31;;;;;;;2.75;1.50;;;;;;;19.49;76.66;99739.56;5062491;28;20029;-60
2022/07/08 01:29:57;;;;;;;4.53;1.50;;;;;;;19.52;77.94;99737.72;5078440;28;20033;-60
2022/07/08 01:32:23;;;;;;;1.25;1.15;;;;;;;19.46;76.52;99733.66;5065692;28;20029;-60
2022/07/08 01:34:48;;;;;;;2.08;1.13;;;;;;;19.38;76.29;99726.22;5082597;28;20252;-60
2022/07/08 01:37:14;;;;;;;1.40;1.23;;;;;;;19.47;76.28;99737.97;5064119;28;20118;-59
2022/07/08 01:39:39;;;;;;;4.60;1.25;;;;;;;19.39;76.06;99742.81;5062215;28;20054;-59
2022/07/08 01:42:05;;;;;;;2.45;1.30;;;;;;;19.37;76.24;99740.28;5071557;28;20020;-58
2022/07/08 01:44:32;;;;;;;3.35;2.10;;;;;;;19.47;76.42;99741.44;5078312;28;20084;-59
2022/07/08 01:46:57;;;;;;;4.95;3.13;;;;;;;19.45;75.90;99745.09;5062097;28;20039;-59
2022/07/08 01:49:23;;;;;;;5.75;3.85;;;;;;;19.46;75.85;99747.63;5062513;28;20025;-59
2022/07/08 01:51:49;;;;;;;5.47;3.20;;;;;;;19.46;76.88;99752.88;5044498;28;20029;-59
2022/07/08 01:54:14;;;;;;;3.85;2.70;;;;;;;19.45;76.69;99758.22;5062227;28;20084;-59
2022/07/08 01:56:41;;;;;;;3.35;2.40;;;;;;;19.46;76.93;99758.13;5062243;28;20025;-59
2022/07/08 01:59:07;;;;;;;2.75;1.70;;;;;;;19.45;76.26;99752.97;5061681;28;20033;-59
2022/07/08 02:01:32;;;;;;;4.43;1.20;;;;;;;19.44;75.14;99752.13;5044084;28;20032;-59
2022/07/08 02:04:01;;;;;;;1.45;1.35;;;;;;;19.47;74.98;99766.88;5044552;28;20034;-59
2022/07/08 02:06:28;;;;;;;1.60;1.50;;;;;;;19.45;76.12;99763.47;5062156;28;20025;-59
2022/07/08 02:08:54;;;;;;;1.35;1.25;;;;;;;19.48;75.53;99761.53;5062197;28;20301;-59
2022/07/08 02:14:04;;;;;;;1.80;1.25;;;;;;;19.54;76.31;99757.72;5062220;28;20033;-59
2022/07/08 02:16:29;;;;;;;1.40;1.30;;;;;;;19.53;76.86;99755.19;5062161;28;20052;-58
2022/07/08 02:18:55;;;;;;;2.17;1.30;;;;;;;19.51;76.54;99754.41;5062132;28;20021;-59
2022/07/08 02:21:21;;;;;;;1.85;1.45;;;;;;;19.49;76.16;99755.31;5062119;28;20029;-59
2022/07/08 02:23:46;;;;;;;1.80;1.20;;;;;;;19.48;76.75;99756.28;5070773;28;20047;-60
2022/07/08 02:26:12;;;;;;;3.70;1.42;;;;;;;19.54;76.29;99762.97;5084631;28;20021;-60
2022/07/08 02:28:37;;;;;;;1.75;1.45;;;;;;;19.52;77.29;99756.09;5065756;28;20310;-61
2022/07/08 02:31:03;;;;;;;5.03;1.70;;;;;;;19.55;77.12;99754.13;5065852;28;20074;-60
2022/07/08 02:33:29;;;;;;;1.67;1.40;;;;;;;19.60;75.93;99752.09;5065467;28;20029;-59
2022/07/08 02:35:54;;;;;;;1.58;1.20;;;;;;;19.55;77.03;99763.78;5054539;28;20020;-59
2022/07/08 02:38:20;;;;;;;2.17;1.48;;;;;;;19.49;76.07;99760.56;5077465;28;20061;-59
2022/07/08 02:40:46;;;;;;;3.72;1.52;;;;;;;19.53;75.92;99768.31;5065572;28;20036;-59
2022/07/08 02:43:12;;;;;;;4.22;1.80;;;;;;;19.50;76.35;99769.31;5065648;28;20020;-59
2022/07/08 02:45:38;;;;;;;3.08;1.50;;;;;;;19.49;76.33;99770.25;5065067;28;20105;-59
2022/07/08 02:48:06;;;;;;;1.50;1.40;;;;;;;19.52;76.38;99771.88;5065206;28;20213;-59
2022/07/08 02:50:32;;;;;;;2.35;1.88;;;;;;;19.57;76.76;99782.97;5069115;28;20317;-59
2022/07/08 02:52:58;;;;;;;2.75;1.20;;;;;;;19.55;76.81;99774.31;5067579;28;20048;-59
2022/07/08 02:55:23;;;;;;;2.60;1.40;;;;;;;19.56;76.63;99768.13;5047969;28;20191;-59
2022/07/08 02:57:49;;;;;;;3.95;1.58;;;;;;;19.63;76.85;99778.19;5064846;28;20195;-59
2022/07/08 03:00:14;;;;;;;4.10;1.70;;;;;;;19.65;76.20;99783.34;5074724;28;20031;-59
2022/07/08 03:02:40;;;;;;;3.30;1.65;;;;;;;19.56;76.42;99773.38;5080542;28;20244;-58
2022/07/08 03:05:05;;;;;;;4.10;1.63;;;;;;;19.64;76.03;99792.19;5065135;28;20024;-58
2022/07/08 03:07:31;;;;;;;4.13;1.90;;;;;;;19.53;76.10;99789.31;5045080;28;20294;-58
2022/07/08 03:09:57;;;;;;;2.88;1.50;;;;;;;19.66;76.43;99795.56;5064333;28;20025;-58
2022/07/08 03:12:22;;;;;;;3.45;1.80;;;;;;;19.66;76.19;99796.41;5064982;28;20345;-57
2022/07/08 03:14:48;;;;;;;2.35;1.63;;;;;;;19.73;76.07;99812.66;5064904;28;20021;-58
2022/07/08 03:17:13;;;;;;;1.88;1.65;;;;;;;19.76;76.54;99809.03;5064729;28;20040;-58
2022/07/08 03:19:39;;;;;;;2.85;1.77;;;;;;;19.79;75.98;99808.88;5064859;28;20025;-58
2022/07/08 03:22:05;;;;;;;2.78;1.92;;;;;;;19.77;75.11;99814.19;5064689;28;20037;-58
2022/07/08 03:24:31;;;;;;;3.47;1.52;;;;;;;19.70;75.51;99823.34;5064652;28;20036;-58
2022/07/08 03:26:56;;;;;;;3.28;1.60;;;;;;;19.70;75.51;99815.47;5071430;28;20024;-58
2022/07/08 03:29:22;;;;;;;2.70;1.73;;;;;;;19.71;75.37;99805.81;5066745;28;20090;-58
2022/07/08 03:31:47;;;;;;;2.67;1.70;;;;;;;19.75;76.15;99813.44;5084782;28;20044;-58
2022/07/08 03:34:13;;;;;;;4.45;2.05;;;;;;;19.81;75.68;99821.00;5067036;28;20033;-58
2022/07/08 03:36:39;;;;;;;2.17;1.67;;;;;;;19.88;75.59;99818.00;5064250;28;20029;-58
2022/07/08 03:39:04;;;;;;;1.67;1.40;;;;;;;19.99;75.15;99826.97;5046686;28;20060;-58
2022/07/08 03:41:30;;;;;;;4.00;1.50;;;;;;;20.06;74.45;99832.69;5064263;28;20043;-58
2022/07/08 03:43:55;;;;;;;2.30;1.60;;;;;;;20.04;74.08;99829.31;5064628;28;20033;-58
2022/07/08 03:46:21;;;;;;;5.07;1.80;;;;;;;20.04;73.47;99836.34;5063900;28;20017;-58
2022/07/08 03:48:47;;;;;;;2.00;1.30;;;;;;;20.09;73.70;99834.31;5064196;28;20206;-59
2022/07/08 03:51:14;;;;;;;1.77;1.35;;;;;;;19.98;73.98;99820.00;5064217;28;20071;-59
2022/07/08 03:53:39;;;;;;;2.70;1.30;;;;;;;20.07;74.64;99831.78;5064085;28;20334;-59
2022/07/08 03:56:05;;;;;;;3.10;1.40;;;;;;;20.16;74.03;99840.91;5046790;28;20027;-59
2022/07/08 03:58:32;;;;;;;2.13;1.30;;;;;;;20.07;73.98;99837.03;5064012;28;20025;-59
2022/07/08 04:00:58;;;;;;;1.50;1.40;;;;;;;20.16;73.23;99848.78;5063880;28;20024;-59
2022/07/08 04:03:23;;;;;;;1.80;1.35;;;;;;;19.98;73.08;99846.31;5073976;28;20317;-59
2022/07/08 04:05:49;;;;;;;7.88;1.65;;;;;;;20.10;72.99;99855.25;5080934;28;20272;-59
2022/07/08 04:08:14;;;;;;;1.95;1.30;;;;;;;20.15;72.45;99852.34;5082336;28;20020;-59
2022/07/08 04:10:40;;;;;;;1.75;1.60;;;;;;;20.17;72.95;99848.69;5045787;28;20066;-59
2022/07/08 04:13:06;;;;;;;3.83;1.60;;;;;;;20.28;72.74;99844.56;5063637;28;20074;-58
2022/07/08 04:15:31;;;;;;;1.88;1.38;;;;;;;20.29;72.69;99846.28;5063628;28;20021;-59
2022/07/08 04:17:57;;;;;;;3.00;1.45;;;;;;;20.38;72.75;99840.50;5063636;28;20025;-59
2022/07/08 04:20:23;;;;;;;2.75;1.27;;;;;;;20.41;72.86;99842.06;5063704;28;20052;-59
2022/07/08 04:22:48;;;;;;;2.17;1.42;;;;;;;20.49;73.36;99856.47;5063701;28;20091;-59
2022/07/08 04:25:14;;;;;;;2.08;1.88;;;;;;;20.42;73.55;99855.16;5063651;28;20031;-59
2022/07/08 04:27:39;;;;;;;2.75;1.52;;;;;;;20.43;73.13;99851.56;5063365;28;20029;-59
2022/07/08 04:30:05;;;;;;;4.38;1.45;;;;;;;20.45;72.95;99854.09;5070885;28;20024;-59
2022/07/08 04:32:31;;;;;;;3.05;1.80;;;;;;;20.50;73.55;99857.31;5066933;28;20103;-58
2022/07/08 04:34:59;;;;;;;3.25;1.90;;;;;;;20.56;73.26;99850.84;5063179;28;20059;-59
2022/07/08 04:37:27;;;;;;;1.60;1.50;;;;;;;20.64;72.47;99853.84;5063087;28;20040;-58
2022/07/08 04:39:53;;;;;;;2.72;1.50;;;;;;;20.58;72.32;99848.94;5063368;28;20063;-58
2022/07/08 04:42:19;;;;;;;1.85;1.30;;;;;;;20.60;71.99;99847.09;5063336;28;20029;-58
2022/07/08 04:44:45;;;;;;;4.20;1.85;;;;;;;20.68;71.23;99856.22;5067646;28;20058;-58
2022/07/08 04:47:10;;;;;;;4.05;1.40;;;;;;;20.71;71.78;99849.94;5064571;28;20167;-58
2022/07/08 04:49:36;;;;;;;1.73;1.45;;;;;;;20.67;71.37;99851.06;5062998;28;20029;-58
2022/07/08 04:52:01;;;;;;;4.88;1.50;;;;;;;20.59;71.68;99842.75;5077757;28;20024;-59
2022/07/08 04:54:27;;;;;;;4.28;1.38;;;;;;;20.70;73.11;99858.78;5072204;28;20028;-58
2022/07/08 04:56:52;;;;;;;3.60;1.85;;;;;;;20.68;72.07;99855.41;5062948;28;20059;-59
2022/07/08 04:59:18;;;;;;;3.40;1.75;;;;;;;20.70;71.33;99858.78;5063454;28;20047;-58
2022/07/08 05:01:44;;;;;;;1.92;1.70;;;;;;;20.80;70.84;99859.88;5077604;28;20058;-59
2022/07/08 05:04:09;;;;;;;2.30;1.40;;;;;;;20.90;70.75;99846.19;5062037;28;20028;-60
2022/07/08 05:06:35;;;;;;;2.42;1.60;;;;;;;21.02;69.83;99858.56;5062461;28;20033;-59
2022/07/08 05:09:01;;;;;;;5.63;1.20;;;;;;;20.85;69.54;99863.09;5062862;28;20021;-59
2022/07/08 05:11:26;;;;;;;1.67;1.20;;;;;;;20.92;69.64;99857.44;5062603;28;20041;-58
2022/07/08 05:13:52;;;;;;;2.88;1.40;;;;;;;20.73;69.32;99827.00;5062084;28;20054;-58
2022/07/08 05:16:17;;;;;;;2.20;1.20;;;;;;;20.86;68.37;99863.94;5079622;28;20059;-58
2022/07/08 05:18:43;;;;;;;1.83;1.30;;;;;;;20.83;69.49;99857.06;5070061;28;20056;-58
2022/07/08 05:21:08;;;;;;;2.50;1.23;;;;;;;21.08;67.17;99858.19;5062405;28;20044;-58
2022/07/08 05:23:34;;;;;;;1.38;1.27;;;;;;;21.20;67.86;99859.22;5062326;28;20032;-58
2022/07/08 05:25:59;;;;;;;1.27;1.17;;;;;;;21.34;68.93;99858.34;5062639;28;20021;-58
2022/07/08 05:28:25;;;;;;;4.80;1.20;;;;;;;21.23;67.04;99861.66;5062227;28;20025;-59
2022/07/08 05:30:50;;;;;;;2.42;1.20;;;;;;;21.20;66.83;99860.03;5062370;28;20035;-58
2022/07/08 05:33:16;;;;;;;1.27;1.15;;;;;;;21.12;66.21;99856.19;5062497;28;20052;-58
2022/07/08 05:35:41;;;;;;;1.40;1.30;;;;;;;21.11;67.75;99854.53;5062227;28;20179;-58
2022/07/08 05:38:07;;;;;;;1.83;1.50;;;;;;;20.96;66.42;99853.69;5062459;28;20332;-57
2022/07/08 05:40:32;;;;;;;1.85;1.30;;;;;;;21.01;66.99;99852.47;5057392;28;20113;-58
2022/07/08 05:42:58;;;;;;;4.78;1.55;;;;;;;21.00;67.57;99857.81;5061073;28;20044;-57
2022/07/08 05:45:24;;;;;;;1.75;1.05;;;;;;;21.04;68.32;99859.34;5066206;28;20040;-58
2022/07/08 05:47:50;;;;;;;1.98;1.52;;;;;;;20.96;68.08;99851.06;5059325;28;20019;-59
2022/07/08 05:50:16;;;;;;;2.28;1.17;;;;;;;20.89;68.38;99857.63;5045216;28;20193;-59
2022/07/08 05:52:41;;;;;;;2.58;1.27;;;;;;;20.93;67.21;99854.72;5055935;28;20044;-58
2022/07/08 05:55:07;;;;;;;2.45;1.20;;;;;;;21.12;67.20;99874.63;5060501;28;20033;-58
2022/07/08 05:57:32;;;;;;;1.52;1.40;;;;;;;21.11;67.55;99870.34;5072311;28;20051;-60
2022/07/08 05:59:58;;;;;;;1.40;1.30;;;;;;;20.80;66.74;99862.53;5066088;28;20055;-59
2022/07/08 06:02:24;;;;;;;2.65;1.25;;;;;;;21.01;67.68;99865.63;5064904;28;20044;-59
2022/07/08 06:04:49;;;;;;;1.42;1.33;;;;;;;21.05;67.79;99868.94;5053252;28;20289;-58
2022/07/08 06:07:15;;;;;;;2.15;1.02;;;;;;;21.06;66.93;99862.69;5062426;28;20048;-59
2022/07/08 06:09:40;;;;;;;2.97;1.08;;;;;;;21.06;66.40;99865.34;5065972;28;20021;-59
2022/07/08 06:12:06;;;;;;;1.70;1.40;;;;;;;21.08;66.86;99873.13;5065890;28;20024;-59
2022/07/08 06:14:32;;;;;;;2.30;1.17;;;;;;;21.14;67.51;99865.72;5052110;28;20041;-58
2022/07/08 06:16:58;;;;;;;3.83;1.35;;;;;;;21.17;66.96;99873.41;5065164;28;20033;-60
2022/07/08 06:19:24;;;;;;;3.13;1.20;;;;;;;21.19;66.55;99882.09;5058640;28;20218;-59
2022/07/08 06:21:50;;;;;;;3.00;1.30;;;;;;;21.17;65.65;99870.78;5056812;28;20028;-58
2022/07/08 06:24:16;;;;;;;2.72;1.20;;;;;;;21.16;66.04;99869.09;5064272;28;20020;-59
2022/07/08 06:26:43;;;;;;;2.15;1.00;;;;;;;21.30;64.15;99875.28;5065262;28;20079;-59
2022/07/08 06:29:10;;;;;;;4.50;1.40;;;;;;;21.30;64.31;99880.56;5065563;28;20037;-59
2022/07/08 06:31:38;;;;;;;1.98;1.10;;;;;;;21.32;64.75;99884.78;5065875;28;20032;-59
2022/07/08 06:34:04;;;;;;;1.65;1.20;;;;;;;21.24;65.11;99891.50;5065559;28;20033;-59
2022/07/08 06:36:32;;;;;;;1.42;1.05;;;;;;;21.25;65.48;99895.78;5065420;28;20318;-59
2022/07/08 06:38:58;;;;;;;1.35;1.17;;;;;;;21.12;64.72;99893.06;5065597;28;20032;-59
2022/07/08 06:41:24;;;;;;;1.20;1.05;;;;;;;21.09;64.52;99894.13;5065226;28;20092;-57
2022/07/08 06:43:50;;;;;;;2.03;1.20;;;;;;;21.03;64.10;99900.63;5065384;28;20055;-57
2022/07/08 06:46:15;;;;;;;2.05;1.60;;;;;;;21.07;65.51;99893.38;5062583;28;20044;-57
2022/07/08 06:48:41;;;;;;;2.47;1.30;;;;;;;20.97;63.85;99887.81;5058730;28;20321;-59
2022/07/08 06:51:07;;;;;;;2.00;1.63;;;;;;;20.90;64.01;99885.66;5050550;28;20098;-57
2022/07/08 06:56:18;;;;;;;2.03;1.70;;;;;;;21.02;64.56;99898.06;5043896;28;20090;-58
2022/07/08 06:58:44;;;;;;;2.03;1.83;;;;;;;20.95;64.57;99902.88;5045382;28;20029;-58
2022/07/08 07:01:10;;;;;;;2.08;1.40;;;;;;;20.90;64.95;99878.59;5065862;28;20078;-57
2022/07/08 07:03:37;;;;;;;1.85;1.27;;;;;;;21.08;65.62;99895.06;5065112;28;20113;-57
2022/07/08 07:06:02;;;;;;;2.67;1.40;;;;;;;21.17;65.75;99899.75;5065327;28;20044;-58
2022/07/08 07:08:28;;;;;;;3.80;1.42;;;;;;;21.01;64.20;99899.03;5064516;28;20029;-58
2022/07/08 07:10:54;;;;;;;3.72;1.48;;;;;;;21.17;64.32;99902.38;5065002;28;20070;-59
2022/07/08 07:13:20;;;;;;;1.30;1.20;;;;;;;21.35;64.73;99891.66;5065332;28;20044;-58
2022/07/08 07:15:46;;;;;;;2.67;1.45;;;;;;;21.60;63.70;99893.59;5064966;28;20021;-59
2022/07/08 07:18:11;;;;;;;1.77;1.60;;;;;;;21.91;63.84;99894.25;5057373;28;20021;-59
2022/07/08 07:20:37;;;;;;;2.75;1.35;;;;;;;22.13;61.47;99892.84;5059804;28;20026;-59
2022/07/08 07:23:02;;;;;;;1.23;1.13;;;;;;;22.16;60.85;99897.91;5059564;28;20039;-59
2022/07/08 07:25:28;;;;;;;3.33;1.35;;;;;;;22.04;61.99;99878.47;5055892;28;20032;-60
2022/07/08 07:27:53;;;;;;;3.60;1.70;;;;;;;22.09;61.33;99893.97;5063193;28;20029;-61
2022/07/08 07:30:24;;;;;;;3.40;1.80;;;;;;;21.93;62.76;99886.25;5064390;28;20025;-62
2022/07/08 07:32:51;;;;;;;3.25;1.48;;;;;;;22.00;63.52;99896.28;5068889;28;20025;-61
2022/07/08 07:35:17;;;;;;;2.35;1.35;;;;;;;21.94;63.62;99882.66;5084528;28;20047;-59
2022/07/08 07:37:42;;;;;;;8.35;3.10;;;;;;;22.08;63.94;99901.06;5058910;28;20048;-59
2022/07/08 07:40:08;;;;;;;2.03;1.42;;;;;;;22.03;63.94;99897.88;5060532;28;20303;-59
2022/07/08 07:42:34;;;;;;;4.57;1.20;;;;;;;21.94;62.41;99904.59;5055117;28;20037;-59
2022/07/08 07:45:02;;;;;;;1.30;1.20;;;;;;;21.91;61.32;99903.97;5048296;28;20195;-59
2022/07/08 07:47:30;;;;;;;1.50;1.40;;;;;;;21.88;61.89;99905.84;5060717;28;20041;-60
2022/07/08 07:49:55;;;;;;;2.70;1.58;;;;;;;21.92;62.10;99913.53;5062496;28;20362;-60
2022/07/08 07:52:21;;;;;;;1.58;1.13;;;;;;;21.94;61.66;99907.22;5062935;28;20028;-60
2022/07/08 07:54:47;;;;;;;1.25;1.15;;;;;;;21.89;60.70;99910.19;5065243;28;20049;-60
2022/07/08 07:57:13;;;;;;;2.20;1.33;;;;;;;22.06;60.30;99911.72;5059191;28;20045;-60
2022/07/08 07:59:39;;;;;;;4.75;1.40;;;;;;;22.20;61.33;99915.22;5058562;28;20037;-61
2022/07/08 08:02:06;;;;;;;2.60;1.15;;;;;;;22.18;60.16;99917.13;5046086;28;20254;-60
2022/07/08 08:04:31;;;;;;;2.42;2.00;;;;;;;22.34;59.95;99904.63;5050730;28;20033;-60
2022/07/08 08:06:57;;;;;;;1.45;1.35;;;;;;;22.31;60.72;99894.25;5056646;28;20028;-61
2022/07/08 08:09:23;;;;;;;1.55;1.33;;;;;;;22.47;59.42;99904.63;5056776;28;20036;-60
2022/07/08 08:11:49;;;;;;;3.55;1.35;;;;;;;22.58;59.32;99904.75;5053238;28;20305;-61
2022/07/08 08:14:14;;;;;;;2.70;1.70;;;;;;;22.77;59.03;99903.50;5063709;28;20025;-62
2022/07/08 08:16:40;;;;;;;4.68;2.17;;;;;;;22.93;59.82;99908.56;5061907;28;20043;-60
2022/07/08 08:19:06;;;;;;;2.70;1.40;;;;;;;22.64;58.81;99889.44;5063396;28;20028;-61
2022/07/08 08:21:31;;;;;;;1.63;1.10;;;;;;;22.68;58.44;99904.13;5061017;28;20083;-61
2022/07/08 08:23:57;;;;;;;4.20;1.40;;;;;;;22.69;58.57;99911.13;5057100;28;20363;-60
2022/07/08 08:26:22;;;;;;;3.20;1.48;;;;;;;22.68;58.51;99910.25;5058572;28;20017;-61
2022/07/08 08:28:49;;;;;;;6.68;1.52;;;;;;;22.65;57.96;99907.00;5054150;28;20322;-61
2022/07/08 08:31:14;;;;;;;2.63;1.50;;;;;;;22.77;58.61;99905.28;5060677;28;20369;-62
2022/07/08 08:33:40;;;;;;;2.83;1.27;;;;;;;22.71;58.62;99898.66;5052648;28;20033;-62
2022/07/08 08:36:06;;;;;;;3.03;1.88;;;;;;;22.86;58.65;99904.66;5054932;28;20032;-61
2022/07/08 08:38:32;;;;;;;7.22;4.10;;;;;;;22.76;59.22;99907.09;5034414;28;20053;-61
2022/07/08 08:40:59;;;;;;;10.40;5.97;;;;;;;22.83;59.30;99899.59;5062812;28;20033;-61
2022/07/08 08:43:25;;;;;;;6.90;2.95;;;;;;;22.93;58.06;99904.13;5071497;28;20040;-61
2022/07/08 08:45:54;;;;;;;1.75;1.40;;;;;;;23.04;58.68;99907.81;5056109;28;20017;-61
2022/07/08 08:48:23;;;;;;;1.48;1.05;;;;;;;22.84;56.55;99901.28;5052551;28;20063;-62
2022/07/08 08:50:54;;;;;;;6.72;3.88;;;;;;;22.93;57.86;99917.34;5062777;28;20037;-62
2022/07/08 08:53:27;;;;;;;2.45;1.30;;;;;;;22.74;57.84;99914.28;5060644;28;20027;-62
2022/07/08 08:55:55;;;;;;;2.97;1.20;;;;;;;22.96;57.25;99907.50;5062147;28;20199;-62
2022/07/08 08:58:21;;;;;;;2.28;1.35;;;;;;;22.96;57.34;99899.56;5061625;28;20032;-60
2022/07/08 09:00:46;;;;;;;3.85;1.85;;;;;;;23.11;57.13;99911.75;5073952;28;20316;-61
2022/07/08 09:03:12;;;;;;;1.70;1.60;;;;;;;23.19;56.87;99914.69;5068892;28;20054;-59
2022/07/08 09:05:39;;;;;;;1.20;1.10;;;;;;;23.17;56.24;99878.75;5028134;28;20025;-60
2022/07/08 09:08:04;;;;;;;2.63;2.08;;;;;;;23.51;55.82;99908.91;5062437;28;20263;-60
2022/07/08 09:10:30;;;;;;;1.52;1.42;;;;;;;23.69;56.11;99927.06;5062016;28;20028;-60
2022/07/08 09:13:05;;;;;;;2.92;1.10;;;;;;;23.80;54.63;99916.53;5058444;28;20322;-60
2022/07/08 09:15:30;;;;;;;3.42;1.17;;;;;;;23.79;54.95;99930.72;5068634;28;20230;-60
2022/07/08 09:17:57;;;;;;;5.35;1.70;;;;;;;23.78;55.55;99921.09;5062666;28;20021;-64
2022/07/08 09:20:22;;;;;;;1.77;1.20;;;;;;;23.76;55.59;99929.13;5060906;28;20029;-63
2022/07/08 09:22:48;;;;;;;2.13;1.38;;;;;;;23.49;54.11;99925.84;5054664;28;20029;-61
2022/07/08 09:25:15;;;;;;;5.63;1.65;;;;;;;23.52;55.96;99925.63;5055566;28;20020;-62
2022/07/08 09:27:40;;;;;;;2.47;1.55;;;;;;;23.44;55.66;99927.03;5060307;28;20274;-62
2022/07/08 09:30:07;;;;;;;3.83;2.90;;;;;;;23.55;55.82;99928.06;5060966;28;20032;-62
2022/07/08 09:32:32;;;;;;;3.55;1.30;;;;;;;23.52;55.85;99918.53;5061170;28;20291;-61
2022/07/08 09:34:58;;;;;;;4.28;1.80;;;;;;;23.49;57.09;99926.69;5055023;28;20021;-61
2022/07/08 09:37:23;;;;;;;2.92;1.77;;;;;;;23.46;56.97;99926.06;5057591;28;20129;-62
2022/07/08 09:39:49;;;;;;;5.30;1.65;;;;;;;23.32;58.60;99913.84;5053474;28;20249;-61
2022/07/08 09:42:16;;;;;;;1.85;1.42;;;;;;;23.46;57.53;99920.75;5053359;28;20032;-61
2022/07/08 09:44:41;;;;;;;2.03;1.75;;;;;;;23.56;55.94;99917.34;5062567;28;20037;-61
2022/07/08 09:47:12;;;;;;;4.43;1.65;;;;;;;23.86;55.50;99926.66;5051335;28;20032;-62
2022/07/08 09:49:43;;;;;;;1.80;1.48;;;;;;;23.75;54.81;99873.72;5061363;28;20048;-61
2022/07/08 09:52:10;;;;;;;3.03;1.73;;;;;;;23.98;55.25;99916.19;5061053;28;20056;-60
2022/07/08 09:54:36;;;;;;;1.83;1.35;;;;;;;23.82;54.15;99925.19;5062259;28;20020;-61
2022/07/08 09:57:07;;;;;;;3.30;1.40;;;;;;;23.57;54.06;99875.88;5062236;28;20092;-61
2022/07/08 09:59:35;;;;;;;3.30;1.42;;;;;;;23.59;55.32;99877.47;5062030;28;20213;-60
2022/07/08 10:02:02;;;;;;;1.30;1.20;;;;;;;23.57;54.76;99915.56;5062032;28;20025;-61
2022/07/08 10:04:29;;;;;;;5.32;1.30;;;;;;;23.36;55.39;99917.94;5062482;28;20202;-61
2022/07/08 10:06:56;;;;;;;3.75;1.80;;;;;;;23.42;56.36;99914.88;5062532;28;20069;-60
2022/07/08 10:09:24;;;;;;;1.45;1.35;;;;;;;23.05;55.48;99909.50;5044795;28;20025;-61
2022/07/08 10:11:50;;;;;;;3.10;1.70;;;;;;;23.38;56.41;99903.66;5063049;28;20074;-62
2022/07/08 10:14:17;;;;;;;5.28;1.42;;;;;;;23.26;56.03;99907.19;5064182;28;20108;-62
2022/07/08 10:16:46;;;;;;;4.50;1.90;;;;;;;23.29;55.47;99896.41;5061901;28;20040;-61
2022/07/08 10:19:21;;;;;;;1.80;1.70;;;;;;;22.93;54.84;99867.16;5062503;28;20029;-61
2022/07/08 10:21:51;;;;;;;2.13;1.60;;;;;;;23.35;55.51;99905.69;5062409;28;20353;-61
2022/07/08 10:24:22;;;;;;;2.22;1.80;;;;;;;23.27;56.24;99859.50;5062432;28;20230;-61
2022/07/08 10:26:48;;;;;;;2.87;1.97;;;;;;;23.63;55.36;99909.84;5062786;28;20020;-61
2022/07/08 10:29:14;;;;;;;1.90;1.25;;;;;;;23.83;54.27;99903.09;5062736;28;20345;-60
2022/07/08 10:31:46;;;;;;;1.90;1.50;;;;;;;23.82;53.95;99900.56;5062490;28;20037;-61
2022/07/08 10:34:20;;;;;;;3.03;1.50;;;;;;;23.83;54.50;99902.22;5062548;28;20083;-62
2022/07/08 10:36:50;;;;;;;2.17;1.38;;;;;;;23.75;55.09;99905.44;5062341;28;20171;-62
2022/07/08 10:39:31;;;;;;;2.83;1.52;;;;;;;23.48;55.25;99903.00;5061922;28;20033;-62
2022/07/08 10:42:07;;;;;;;1.70;1.60;;;;;;;23.73;55.82;99913.50;5062358;28;20055;-62
2022/07/08 10:44:42;;;;;;;3.75;1.65;;;;;;;23.89;55.29;99907.94;5064880;28;20080;-62
2022/07/08 10:47:09;;;;;;;2.35;1.52;;;;;;;23.98;53.92;99905.59;5047942;28;20032;-62
2022/07/08 10:49:46;;;;;;;2.78;1.73;;;;;;;23.99;54.17;99912.56;5062953;28;20074;-62
2022/07/08 10:52:13;;;;;;;3.50;1.60;;;;;;;23.95;54.13;99899.56;5065472;28;20054;-62
2022/07/08 10:54:39;;;;;;;1.70;1.60;;;;;;;23.66;53.70;99906.09;5065892;28;20091;-62
2022/07/08 10:57:14;;;;;;;1.40;1.23;;;;;;;23.61;54.43;99899.38;5065802;28;20028;-62
2022/07/08 10:59:40;;;;;;;1.65;1.55;;;;;;;23.75;56.03;99901.00;5065549;28;20326;-61
2022/07/08 11:02:07;;;;;;;2.80;1.83;;;;;;;23.75;55.00;99893.06;5065586;28;20037;-62
2022/07/08 11:04:37;;;;;;;2.00;1.60;;;;;;;23.75;54.49;99900.16;5065617;28;20372;-61
2022/07/08 11:07:22;;;;;;;3.15;1.63;;;;;;;23.87;54.59;99894.00;5065436;28;20025;-61
2022/07/08 11:09:57;;;;;;;2.13;1.45;;;;;;;23.74;54.23;99909.03;5066387;28;20063;-61
2022/07/08 11:12:28;;;;;;;1.77;1.67;;;;;;;23.90;53.91;99890.25;5047946;28;20029;-61
2022/07/08 11:14:56;;;;;;;3.13;1.60;;;;;;;23.99;54.15;99894.06;5065551;28;20024;-61
2022/07/08 11:17:24;;;;;;;3.00;1.55;;;;;;;23.87;54.21;99859.63;5065497;28;20017;-61
2022/07/08 11:19:52;;;;;;;4.53;2.00;;;;;;;23.91;52.53;99884.03;5065373;28;20031;-61
2022/07/08 11:22:18;;;;;;;2.75;1.70;;;;;;;23.98;53.07;99887.91;5065048;28;20031;-62
2022/07/08 11:24:46;;;;;;;1.67;1.50;;;;;;;23.79;51.34;99869.88;5066034;28;20063;-62
2022/07/08 11:27:11;;;;;;;3.67;2.00;;;;;;;23.72;52.13;99881.88;5064834;28;20029;-62
2022/07/08 11:29:44;;;;;;;1.83;1.48;;;;;;;23.90;52.68;99882.34;5065511;28;20202;-60
2022/07/08 11:32:10;;;;;;;2.45;1.80;;;;;;;23.82;53.25;99882.88;5065258;28;20056;-62
2022/07/08 11:34:36;;;;;;;1.98;1.45;;;;;;;23.44;53.24;99882.09;5065021;28;20326;-62
2022/07/08 11:37:02;;;;;;;2.67;1.80;;;;;;;23.24;54.49;99862.38;5064808;28;20127;-62